createdAt,value
2018-12-19T00:01:34.377Z,6.25
2018-12-19T00:07:29.369Z,4.94
2018-12-19T00:13:24.405Z,4.26
2018-12-19T00:19:19.387Z,4.62
2018-12-19T00:25:14.358Z,5.65
2018-12-19T00:31:09.362Z,6.66
2018-12-19T00:37:04.367Z,10.03
2018-12-19T00:42:59.394Z,11.47
2018-12-19T00:48:54.370Z,12.06
2018-12-19T00:54:49.372Z,12.31
2018-12-19T01:00:44.385Z,12.68
2018-12-19T01:06:39.382Z,11.57
2018-12-19T01:12:34.386Z,10.9
2018-12-19T01:18:29.385Z,10.57
2018-12-19T01:24:24.382Z,10.15
2018-12-19T01:30:19.385Z,9.61
2018-12-19T01:36:14.396Z,10.3
2018-12-19T01:42:09.408Z,10.22
2018-12-19T01:48:04.414Z,10.67
2018-12-19T01:53:59.458Z,9.77
2018-12-19T01:59:54.429Z,8.89
2018-12-19T02:05:49.413Z,8.41
2018-12-19T02:11:44.442Z,8.41
2018-12-19T02:17:39.418Z,10.13
2018-12-19T02:23:34.425Z,10.59
2018-12-19T02:29:29.418Z,10.41
2018-12-19T02:35:24.408Z,10.17
2018-12-19T02:41:19.437Z,10.11
2018-12-19T02:47:14.441Z,9.64
2018-12-19T02:53:09.433Z,9
2018-12-19T02:59:04.423Z,8.28
2018-12-19T03:04:59.438Z,9.03
2018-12-19T03:10:54.466Z,10.01
2018-12-19T03:16:49.463Z,10.64
2018-12-19T03:22:44.455Z,9.23
2018-12-19T03:28:39.484Z,9.49
2018-12-19T03:34:34.440Z,9.77
2018-12-19T03:40:29.451Z,9.69
2018-12-19T03:46:24.502Z,9.92
2018-12-19T03:52:19.470Z,9.85
2018-12-19T03:58:14.452Z,9.23
2018-12-19T04:04:09.471Z,8.45
2018-12-19T04:10:04.502Z,7.36
2018-12-19T04:15:59.489Z,8.01
2018-12-19T04:21:54.464Z,7.3
2018-12-19T04:27:49.508Z,7
2018-12-19T04:33:44.517Z,8.4
2018-12-19T04:39:39.485Z,8
2018-12-19T04:45:34.554Z,8.22
2018-12-19T04:51:29.529Z,8.17
2018-12-19T04:57:24.511Z,8.34
2018-12-19T05:03:19.500Z,9.9
2018-12-19T05:09:14.490Z,10.97
2018-12-19T05:15:09.508Z,9.6
2018-12-19T05:21:04.501Z,10.02
2018-12-19T05:26:59.520Z,9.43
2018-12-19T05:32:54.517Z,12.22
2018-12-19T05:38:49.536Z,11.28
2018-12-19T05:44:44.519Z,10.26
2018-12-19T05:50:39.537Z,11.57
2018-12-19T05:56:34.527Z,9.3
2018-12-19T06:02:29.535Z,8.04
2018-12-19T06:08:24.557Z,8.54
2018-12-19T06:14:19.589Z,14.99
2018-12-19T06:20:14.544Z,7.54
2018-12-19T06:26:09.548Z,7.9
2018-12-19T06:32:04.551Z,7.54
2018-12-19T06:37:59.554Z,7.83
2018-12-19T06:43:54.542Z,8.8
2018-12-19T06:49:49.552Z,7.52
2018-12-19T06:55:44.552Z,6.88
2018-12-19T07:01:39.568Z,8.77
2018-12-19T07:07:34.554Z,12.67
2018-12-19T07:13:29.557Z,12.27
2018-12-19T07:19:24.583Z,11.54
2018-12-19T07:25:19.566Z,10.73
2018-12-19T07:31:14.561Z,8.92
2018-12-19T07:37:09.570Z,11.52
2018-12-19T07:43:04.596Z,13.15
2018-12-19T07:48:59.564Z,12.3
2018-12-19T07:54:54.572Z,10.92
2018-12-19T08:00:49.603Z,12.56
2018-12-19T08:06:44.599Z,9.91
2018-12-19T08:12:39.621Z,13.54
2018-12-19T08:18:34.585Z,16.11
2018-12-19T08:24:29.592Z,14.52
2018-12-19T08:30:24.607Z,15.43
2018-12-19T08:36:19.644Z,16.93
2018-12-19T08:42:14.601Z,17.75
2018-12-19T08:48:09.636Z,21.82
2018-12-19T08:54:04.663Z,31.94
2018-12-19T08:59:59.604Z,48.35
2018-12-19T09:05:54.615Z,35.05
2018-12-19T09:11:50.116Z,30.79
2018-12-19T09:17:44.668Z,38.67
2018-12-19T09:23:39.617Z,33.66
2018-12-19T09:29:34.620Z,30.93
2018-12-19T09:35:29.695Z,31.27
2018-12-19T09:41:24.631Z,30.92
2018-12-19T09:47:19.646Z,33.27
2018-12-19T09:53:14.646Z,31.55
2018-12-19T09:59:09.655Z,31.06
2018-12-19T10:05:04.645Z,35.05
2018-12-19T10:10:59.675Z,42.22
2018-12-19T10:16:54.659Z,49.77
2018-12-19T10:22:49.677Z,42.01
2018-12-19T10:28:44.651Z,35.54
2018-12-19T10:34:39.661Z,31.96
2018-12-19T10:40:34.661Z,30.69
2018-12-19T10:46:29.658Z,28.97
2018-12-19T10:52:24.715Z,30.55
2018-12-19T10:58:19.668Z,39.95
2018-12-19T11:04:14.711Z,31.92
2018-12-19T11:10:09.677Z,27.96
2018-12-19T11:16:04.694Z,27.84
2018-12-19T11:21:59.694Z,28.98
2018-12-19T11:27:54.693Z,29.92
2018-12-19T11:33:49.684Z,29.53
2018-12-19T11:39:44.691Z,29.81
2018-12-19T11:45:39.746Z,30
2018-12-19T11:51:34.699Z,33.23
2018-12-19T11:57:29.704Z,31.74
2018-12-19T12:03:24.710Z,37.43
2018-12-19T12:09:19.699Z,36.87
2018-12-19T12:15:14.753Z,36.09
2018-12-19T12:21:09.749Z,34.3
2018-12-19T12:27:04.728Z,34.96
2018-12-19T12:32:59.801Z,33.02
2018-12-19T12:38:54.754Z,28.7
2018-12-19T12:44:49.750Z,26.64
2018-12-19T12:50:44.755Z,26.39
2018-12-19T12:56:39.740Z,32.5
2018-12-19T13:02:34.742Z,34.92
2018-12-19T13:08:29.739Z,36.13
2018-12-19T13:14:24.756Z,38.3
2018-12-19T13:20:19.794Z,41.04
2018-12-19T13:26:14.762Z,39.33
2018-12-19T13:32:09.739Z,38.25
2018-12-19T13:38:04.769Z,35.91
2018-12-19T13:43:59.765Z,36.93
2018-12-19T13:49:54.789Z,35.05
2018-12-19T13:55:49.789Z,36.41
2018-12-19T14:01:44.789Z,33.92
2018-12-19T14:07:39.765Z,35.84
2018-12-19T14:13:34.764Z,30.79
2018-12-19T14:19:29.783Z,31.47
2018-12-19T14:25:24.805Z,30.27
2018-12-19T14:31:19.781Z,30.32
2018-12-19T14:37:14.800Z,28.8
2018-12-19T14:43:09.807Z,30.07
2018-12-19T14:49:04.806Z,29.04
2018-12-19T14:54:59.789Z,28.33
2018-12-19T15:00:54.802Z,30.16
2018-12-19T15:06:49.834Z,28.99
2018-12-19T15:12:44.801Z,28.95
2018-12-19T15:18:39.805Z,29.18
2018-12-19T15:24:34.812Z,33.21
2018-12-19T15:30:29.805Z,36.27
2018-12-19T15:36:24.840Z,33.38
2018-12-19T15:42:19.871Z,31.76
2018-12-19T15:48:14.836Z,39.53
2018-12-19T15:54:09.813Z,38.84
2018-12-19T16:00:04.832Z,42.03
2018-12-19T16:05:59.837Z,55.86
2018-12-19T16:11:54.819Z,42.53
2018-12-19T16:17:49.825Z,39.33
2018-12-19T16:23:44.898Z,43.7
2018-12-19T16:29:39.836Z,40
2018-12-19T16:35:34.862Z,38.5
2018-12-19T16:41:29.889Z,39.96
2018-12-19T16:47:24.915Z,51.83
2018-12-19T16:53:19.879Z,59.53
2018-12-19T16:59:14.865Z,50.77
2018-12-19T17:05:09.859Z,49.66
2018-12-19T17:11:04.853Z,53.9
2018-12-19T17:16:59.881Z,44.39
2018-12-19T17:22:54.902Z,36.76
2018-12-19T17:28:49.865Z,34.37
2018-12-19T17:34:44.888Z,32.46
2018-12-19T17:40:39.891Z,29.45
2018-12-19T17:46:34.904Z,34.29
2018-12-19T17:52:29.886Z,29.43
2018-12-19T17:58:24.905Z,27.39
2018-12-19T18:04:19.910Z,28.6
2018-12-19T18:10:14.911Z,32.65
2018-12-19T18:16:09.922Z,35.49
2018-12-19T18:22:04.901Z,34.61
2018-12-19T18:27:59.908Z,36
2018-12-19T18:33:54.887Z,31.46
2018-12-19T18:39:49.919Z,29.68
2018-12-19T18:45:45.004Z,25.94
2018-12-19T18:51:39.935Z,42.34
2018-12-19T18:57:34.915Z,33.48
2018-12-19T19:03:29.941Z,60.86
2018-12-19T19:09:24.926Z,50.87
2018-12-19T19:15:19.919Z,42.24
2018-12-19T19:21:14.948Z,50.26
2018-12-19T19:27:09.961Z,50.64
2018-12-19T19:33:04.952Z,47.93
2018-12-19T19:38:59.957Z,52.49
2018-12-19T19:44:54.995Z,52.98
2018-12-19T19:50:50.591Z,34.68
2018-12-19T19:56:44.982Z,32.57
2018-12-19T20:02:39.978Z,30.96
2018-12-19T20:08:34.952Z,34.52
2018-12-19T20:14:29.976Z,45.47
2018-12-19T20:20:24.966Z,49.24
2018-12-19T20:26:19.964Z,43.64
2018-12-19T20:32:14.976Z,47.97
2018-12-19T20:38:10.010Z,48.38
2018-12-19T20:44:04.972Z,49.2
2018-12-19T20:49:59.983Z,50.52
2018-12-19T20:55:55.019Z,47.75
2018-12-19T21:01:49.988Z,47.12
2018-12-19T21:07:45.001Z,43.62
2018-12-19T21:13:46.507Z,44.35
2018-12-19T21:19:34.975Z,49.9
2018-12-19T21:25:29.997Z,48.86
2018-12-19T21:31:25.033Z,47.06
2018-12-19T21:37:20.003Z,44.1
2018-12-19T21:43:15.030Z,44.34
2018-12-19T21:49:10.037Z,36.83
2018-12-19T21:55:05.045Z,35.83
2018-12-19T22:01:00.002Z,40.26
2018-12-19T22:06:55.027Z,35.98
2018-12-19T22:12:50.055Z,26.27
2018-12-19T22:18:45.039Z,20.45
2018-12-19T22:24:40.051Z,17.66
2018-12-19T22:30:35.038Z,15.15
2018-12-19T22:36:30.043Z,15.83
2018-12-19T22:42:25.031Z,21.46
2018-12-19T22:48:20.120Z,19.84
2018-12-19T22:54:15.036Z,20.18
2018-12-19T23:00:10.156Z,28.28
2018-12-19T23:06:05.117Z,27.42
2018-12-19T23:12:00.051Z,25.59
2018-12-19T23:17:55.052Z,20.97
2018-12-19T23:23:50.069Z,22.34
2018-12-19T23:29:45.111Z,21.85
2018-12-19T23:35:40.089Z,21.42
2018-12-19T23:41:35.086Z,20.17
2018-12-19T23:47:30.152Z,18.82
2018-12-19T23:53:25.062Z,19.59
2018-12-19T23:59:20.150Z,22.25
